sensor_id;sensor_type;location;lat;lon;timestamp;pressure;altitude;pressure_sealevel;temperature;humidity
37852;BME280;23691;52.486;4.650;2023-03-20T00:00:06;101906.63;;;9.19;79.80
37852;BME280;23691;52.486;4.650;2023-03-20T00:02:39;101918.16;;;9.20;80.02
37852;BME280;23691;52.486;4.650;2023-03-20T00:05:14;101922.53;;;9.21;79.92
37852;BME280;23691;52.486;4.650;2023-03-20T00:07:40;101909.41;;;9.18;80.07
37852;BME280;23691;52.486;4.650;2023-03-20T00:10:07;101912.09;;;9.18;79.92
37852;BME280;23691;52.486;4.650;2023-03-20T00:12:33;101912.97;;;9.18;80.02
37852;BME280;23691;52.486;4.650;2023-03-20T00:14:59;101921.94;;;9.17;79.95
37852;BME280;23691;52.486;4.650;2023-03-20T00:17:26;101919.13;;;9.19;80.04
37852;BME280;23691;52.486;4.650;2023-03-20T00:19:52;101913.91;;;9.17;79.89
37852;BME280;23691;52.486;4.650;2023-03-20T00:22:17;101916.38;;;9.09;80.05
37852;BME280;23691;52.486;4.650;2023-03-20T00:24:43;101929.13;;;9.06;80.54
37852;BME280;23691;52.486;4.650;2023-03-20T00:27:12;101938.97;;;9.05;80.63
37852;BME280;23691;52.486;4.650;2023-03-20T00:29:38;101945.16;;;9.06;81.02
37852;BME280;23691;52.486;4.650;2023-03-20T00:32:04;101953.41;;;9.02;80.94
37852;BME280;23691;52.486;4.650;2023-03-20T00:34:30;101940.06;;;9.02;81.22
37852;BME280;23691;52.486;4.650;2023-03-20T00:36:56;101933.06;;;9.01;81.24
37852;BME280;23691;52.486;4.650;2023-03-20T00:39:22;101923.69;;;9.07;81.17
37852;BME280;23691;52.486;4.650;2023-03-20T00:42:02;101916.38;;;9.09;81.17
37852;BME280;23691;52.486;4.650;2023-03-20T00:44:35;101933.78;;;9.03;81.37
37852;BME280;23691;52.486;4.650;2023-03-20T00:47:05;101944.56;;;9.02;81.65
37852;BME280;23691;52.486;4.650;2023-03-20T00:49:34;101944.47;;;9.03;81.75
37852;BME280;23691;52.486;4.650;2023-03-20T00:52:01;101933.78;;;9.03;81.56
37852;BME280;23691;52.486;4.650;2023-03-20T00:54:27;101926.47;;;9.06;81.63
37852;BME280;23691;52.486;4.650;2023-03-20T00:56:57;101939.81;;;9.06;81.53
37852;BME280;23691;52.486;4.650;2023-03-20T00:59:26;101939.97;;;9.04;81.62
37852;BME280;23691;52.486;4.650;2023-03-20T01:01:52;101943.59;;;9.03;81.67
37852;BME280;23691;52.486;4.650;2023-03-20T01:04:18;101950.91;;;9.01;81.55
37852;BME280;23691;52.486;4.650;2023-03-20T01:06:44;101943.72;;;9.01;81.66
37852;BME280;23691;52.486;4.650;2023-03-20T01:09:10;101939.13;;;9.03;81.50
37852;BME280;23691;52.486;4.650;2023-03-20T01:11:35;101944.91;;;9.09;81.32
37852;BME280;23691;52.486;4.650;2023-03-20T01:14:02;101940.31;;;9.11;80.99
37852;BME280;23691;52.486;4.650;2023-03-20T01:16:28;101942.97;;;9.11;81.04
37852;BME280;23691;52.486;4.650;2023-03-20T01:18:53;101954.50;;;9.11;80.80
37852;BME280;23691;52.486;4.650;2023-03-20T01:21:20;101959.84;;;9.11;80.80
37852;BME280;23691;52.486;4.650;2023-03-20T01:23:47;101959.59;;;9.03;80.81
37852;BME280;23691;52.486;4.650;2023-03-20T01:26:33;101955.38;;;9.00;80.87
37852;BME280;23691;52.486;4.650;2023-03-20T01:29:00;101967.28;;;8.96;80.73
37852;BME280;23691;52.486;4.650;2023-03-20T01:31:26;101969.97;;;8.96;80.66
37852;BME280;23691;52.486;4.650;2023-03-20T01:33:51;101972.75;;;8.95;80.73
37852;BME280;23691;52.486;4.650;2023-03-20T01:36:20;101971.78;;;8.96;80.92
37852;BME280;23691;52.486;4.650;2023-03-20T01:38:53;101958.28;;;8.97;80.87
37852;BME280;23691;52.486;4.650;2023-03-20T01:41:20;101935.84;;;9.00;80.73
37852;BME280;23691;52.486;4.650;2023-03-20T01:43:47;101945.94;;;8.96;80.51
37852;BME280;23691;52.486;4.650;2023-03-20T01:46:39;101942.53;;;8.94;80.31
37852;BME280;23691;52.486;4.650;2023-03-20T01:51:42;101926.53;;;8.94;80.07
37852;BME280;23691;52.486;4.650;2023-03-20T01:54:12;101923.97;;;8.93;80.04
37852;BME280;23691;52.486;4.650;2023-03-20T01:56:45;101917.69;;;8.94;80.00
37852;BME280;23691;52.486;4.650;2023-03-20T01:59:16;101926.25;;;8.97;79.85
37852;BME280;23691;52.486;4.650;2023-03-20T02:01:44;101922.88;;;8.95;79.70
37852;BME280;23691;52.486;4.650;2023-03-20T02:04:11;101920.94;;;8.97;79.80
37852;BME280;23691;52.486;4.650;2023-03-20T02:06:38;101917.41;;;8.97;79.68
37852;BME280;23691;52.486;4.650;2023-03-20T02:09:04;101909.88;;;9.02;79.75
37852;BME280;23691;52.486;4.650;2023-03-20T02:11:30;101906.94;;;9.05;79.34
37852;BME280;23691;52.486;4.650;2023-03-20T02:13:58;101898.94;;;9.05;79.33
37852;BME280;23691;52.486;4.650;2023-03-20T02:16:24;101886.41;;;9.06;79.35
37852;BME280;23691;52.486;4.650;2023-03-20T02:18:51;101879.66;;;9.01;79.34
37852;BME280;23691;52.486;4.650;2023-03-20T02:27:33;101866.44;;;9.00;79.39
37852;BME280;23691;52.486;4.650;2023-03-20T02:36:08;101863.69;;;8.90;79.81
37852;BME280;23691;52.486;4.650;2023-03-20T02:41:45;101871.69;;;8.90;79.96
37852;BME280;23691;52.486;4.650;2023-03-20T02:46:56;101872.09;;;8.86;79.95
37852;BME280;23691;52.486;4.650;2023-03-20T02:50:08;101871.97;;;8.87;80.00
37852;BME280;23691;52.486;4.650;2023-03-20T02:52:17;101869.19;;;8.89;79.72
37852;BME280;23691;52.486;4.650;2023-03-20T03:00:11;101861.28;;;8.87;79.81
37852;BME280;23691;52.486;4.650;2023-03-20T03:02:43;101858.63;;;8.87;79.79
37852;BME280;23691;52.486;4.650;2023-03-20T03:05:22;101860.56;;;8.85;79.63
37852;BME280;23691;52.486;4.650;2023-03-20T03:07:50;101853.09;;;8.79;79.77
37852;BME280;23691;52.486;4.650;2023-03-20T03:12:48;101839.88;;;8.77;79.80
37852;BME280;23691;52.486;4.650;2023-03-20T03:15:22;101831.97;;;8.76;79.58
37852;BME280;23691;52.486;4.650;2023-03-20T03:17:50;101847.97;;;8.76;79.72
37852;BME280;23691;52.486;4.650;2023-03-20T03:20:25;101838.88;;;8.78;79.71
37852;BME280;23691;52.486;4.650;2023-03-20T03:22:52;101826.53;;;8.77;80.12
37852;BME280;23691;52.486;4.650;2023-03-20T03:25:20;101827.25;;;8.79;79.82
37852;BME280;23691;52.486;4.650;2023-03-20T03:27:53;101816.69;;;8.78;79.89
37852;BME280;23691;52.486;4.650;2023-03-20T03:30:25;101815.28;;;8.74;80.02
37852;BME280;23691;52.486;4.650;2023-03-20T03:35:34;101814.41;;;8.73;80.01
37852;BME280;23691;52.486;4.650;2023-03-20T03:43:42;101813.81;;;8.70;80.03
37852;BME280;23691;52.486;4.650;2023-03-20T03:46:18;101802.44;;;8.68;80.25
37852;BME280;23691;52.486;4.650;2023-03-20T03:48:47;101798.94;;;8.67;80.24
37852;BME280;23691;52.486;4.650;2023-03-20T03:51:24;101816.50;;;8.70;80.08
37852;BME280;23691;52.486;4.650;2023-03-20T03:53:59;101817.06;;;8.73;80.05
37852;BME280;23691;52.486;4.650;2023-03-20T03:56:27;101819.88;;;8.72;79.79
37852;BME280;23691;52.486;4.650;2023-03-20T03:58:57;101824.97;;;8.75;79.90
37852;BME280;23691;52.486;4.650;2023-03-20T04:01:25;101818.63;;;8.76;79.67
37852;BME280;23691;52.486;4.650;2023-03-20T04:03:54;101821.31;;;8.76;79.36
37852;BME280;23691;52.486;4.650;2023-03-20T04:06:21;101822.28;;;8.75;79.48
37852;BME280;23691;52.486;4.650;2023-03-20T04:08:47;101823.50;;;8.71;79.40
37852;BME280;23691;52.486;4.650;2023-03-20T04:11:18;101813.00;;;8.69;79.39
37852;BME280;23691;52.486;4.650;2023-03-20T04:13:45;101817.22;;;8.72;79.26
37852;BME280;23691;52.486;4.650;2023-03-20T04:16:12;101818.19;;;8.71;79.10
37852;BME280;23691;52.486;4.650;2023-03-20T04:18:40;101826.31;;;8.69;79.03
37852;BME280;23691;52.486;4.650;2023-03-20T04:21:07;101824.16;;;8.63;79.08
37852;BME280;23691;52.486;4.650;2023-03-20T04:23:32;101817.00;;;8.64;78.84
37852;BME280;23691;52.486;4.650;2023-03-20T04:25:58;101823.06;;;8.66;78.83
37852;BME280;23691;52.486;4.650;2023-03-20T04:28:24;101815.03;;;8.66;79.03
37852;BME280;23691;52.486;4.650;2023-03-20T04:30:57;101812.25;;;8.67;79.00
37852;BME280;23691;52.486;4.650;2023-03-20T04:33:24;101799.66;;;8.69;78.72
37852;BME280;23691;52.486;4.650;2023-03-20T04:35:50;101793.59;;;8.67;78.88
37852;BME280;23691;52.486;4.650;2023-03-20T04:38:16;101795.16;;;8.70;78.50
37852;BME280;23691;52.486;4.650;2023-03-20T04:40:43;101797.81;;;8.70;78.39
37852;BME280;23691;52.486;4.650;2023-03-20T04:43:09;101797.38;;;8.65;78.56
37852;BME280;23691;52.486;4.650;2023-03-20T04:45:34;101799.88;;;8.66;78.53
37852;BME280;23691;52.486;4.650;2023-03-20T04:48:00;101794.53;;;8.66;78.61
37852;BME280;23691;52.486;4.650;2023-03-20T04:50:26;101792.59;;;8.68;78.73
37852;BME280;23691;52.486;4.650;2023-03-20T04:52:51;101791.66;;;8.69;78.43
37852;BME280;23691;52.486;4.650;2023-03-20T04:55:17;101792.88;;;8.65;78.67
37852;BME280;23691;52.486;4.650;2023-03-20T04:57:42;101782.19;;;8.65;78.46
37852;BME280;23691;52.486;4.650;2023-03-20T05:00:08;101784.03;;;8.65;78.44
37852;BME280;23691;52.486;4.650;2023-03-20T05:02:36;101780.75;;;8.61;78.73
37852;BME280;23691;52.486;4.650;2023-03-20T05:05:02;101783.81;;;8.56;79.01
37852;BME280;23691;52.486;4.650;2023-03-20T05:07:27;101786.47;;;8.56;78.97
37852;BME280;23691;52.486;4.650;2023-03-20T05:09:52;101784.41;;;8.60;78.63
37852;BME280;23691;52.486;4.650;2023-03-20T05:12:18;101784.97;;;8.64;78.79
37852;BME280;23691;52.486;4.650;2023-03-20T05:14:43;101778.53;;;8.66;78.64
37852;BME280;23691;52.486;4.650;2023-03-20T05:17:09;101783.88;;;8.66;78.61
37852;BME280;23691;52.486;4.650;2023-03-20T05:19:34;101779.66;;;8.64;78.72
37852;BME280;23691;52.486;4.650;2023-03-20T05:21:59;101775.88;;;8.66;78.82
37852;BME280;23691;52.486;4.650;2023-03-20T05:24:25;101778.41;;;8.68;78.87
37852;BME280;23691;52.486;4.650;2023-03-20T05:26:53;101781.94;;;8.68;78.76
37852;BME280;23691;52.486;4.650;2023-03-20T05:29:19;101771.25;;;8.68;78.84
37852;BME280;23691;52.486;4.650;2023-03-20T05:31:45;101769.44;;;8.69;78.96
37852;BME280;23691;52.486;4.650;2023-03-20T05:34:11;101772.38;;;8.66;79.17
37852;BME280;23691;52.486;4.650;2023-03-20T05:36:36;101778.09;;;8.61;79.48
37852;BME280;23691;52.486;4.650;2023-03-20T05:39:02;101775.56;;;8.59;79.73
37852;BME280;23691;52.486;4.650;2023-03-20T05:41:28;101774.47;;;8.62;79.83
37852;BME280;23691;52.486;4.650;2023-03-20T05:43:53;101772.63;;;8.63;79.87
37852;BME280;23691;52.486;4.650;2023-03-20T05:46:18;101778.09;;;8.61;80.06
37852;BME280;23691;52.486;4.650;2023-03-20T05:48:44;101773.63;;;8.62;80.16
37852;BME280;23691;52.486;4.650;2023-03-20T05:51:10;101782.31;;;8.64;80.24
37852;BME280;23691;52.486;4.650;2023-03-20T05:53:35;101780.38;;;8.66;80.11
37852;BME280;23691;52.486;4.650;2023-03-20T05:56:00;101782.91;;;8.67;80.40
37852;BME280;23691;52.486;4.650;2023-03-20T05:58:26;101781.94;;;8.68;80.36
37852;BME280;23691;52.486;4.650;2023-03-20T06:00:51;101778.41;;;8.68;80.42
37852;BME280;23691;52.486;4.650;2023-03-20T06:03:16;101778.41;;;8.68;80.29
37852;BME280;23691;52.486;4.650;2023-03-20T06:05:43;101784.59;;;8.68;80.45
37852;BME280;23691;52.486;4.650;2023-03-20T06:08:08;101784.59;;;8.68;80.64
37852;BME280;23691;52.486;4.650;2023-03-20T06:10:33;101781.69;;;8.71;80.75
37852;BME280;23691;52.486;4.650;2023-03-20T06:12:59;101783.50;;;8.71;80.80
37852;BME280;23691;52.486;4.650;2023-03-20T06:15:28;101775.38;;;8.72;81.05
37852;BME280;23691;52.486;4.650;2023-03-20T06:17:55;101783.94;;;8.76;80.88
37852;BME280;23691;52.486;4.650;2023-03-20T06:20:20;101780.91;;;8.80;80.69
37852;BME280;23691;52.486;4.650;2023-03-20T06:22:46;101779.94;;;8.81;80.55
37852;BME280;23691;52.486;4.650;2023-03-20T06:25:11;101789.50;;;8.84;80.53
37852;BME280;23691;52.486;4.650;2023-03-20T06:27:37;101789.50;;;8.84;80.32
37852;BME280;23691;52.486;4.650;2023-03-20T06:30:03;101781.72;;;8.81;80.78
37852;BME280;23691;52.486;4.650;2023-03-20T06:32:28;101790.72;;;8.80;80.96
37852;BME280;23691;52.486;4.650;2023-03-20T06:34:54;101794.22;;;8.80;80.78
37852;BME280;23691;52.486;4.650;2023-03-20T06:37:19;101791.84;;;8.77;80.96
37852;BME280;23691;52.486;4.650;2023-03-20T06:39:45;101786.50;;;8.77;81.05
37852;BME280;23691;52.486;4.650;2023-03-20T06:42:10;101786.13;;;8.82;81.02
37852;BME280;23691;52.486;4.650;2023-03-20T06:44:37;101793.84;;;8.85;80.99
37852;BME280;23691;52.486;4.650;2023-03-20T06:47:03;101794.69;;;8.86;80.78
37852;BME280;23691;52.486;4.650;2023-03-20T06:49:28;101794.31;;;8.90;81.00
37852;BME280;23691;52.486;4.650;2023-03-20T06:51:53;101794.75;;;8.95;80.82
37852;BME280;23691;52.486;4.650;2023-03-20T06:54:19;101796.19;;;8.99;80.71
37852;BME280;23691;52.486;4.650;2023-03-20T06:56:44;101799.25;;;8.95;80.50
37852;BME280;23691;52.486;4.650;2023-03-20T06:59:10;101803.03;;;8.92;81.03
37852;BME280;23691;52.486;4.650;2023-03-20T07:01:36;101795.13;;;8.91;80.82
37852;BME280;23691;52.486;4.650;2023-03-20T07:04:01;101800.25;;;8.94;80.88
37852;BME280;23691;52.486;4.650;2023-03-20T07:06:26;101802.66;;;8.97;81.03
37852;BME280;23691;52.486;4.650;2023-03-20T07:08:52;101795.63;;;8.96;80.82
37852;BME280;23691;52.486;4.650;2023-03-20T07:11:17;101796.47;;;8.96;80.94
37852;BME280;23691;52.486;4.650;2023-03-20T07:13:43;101798.88;;;8.99;80.86
37852;BME280;23691;52.486;4.650;2023-03-20T07:16:09;101794.97;;;9.03;80.67
37852;BME280;23691;52.486;4.650;2023-03-20T07:18:34;101798.22;;;9.07;80.62
37852;BME280;23691;52.486;4.650;2023-03-20T07:21:03;101794.31;;;9.11;80.68
37852;BME280;23691;52.486;4.650;2023-03-20T07:23:32;101804.72;;;9.14;80.48
37852;BME280;23691;52.486;4.650;2023-03-20T07:26:02;101803.88;;;9.14;80.56
37852;BME280;23691;52.486;4.650;2023-03-20T07:28:27;101809.22;;;9.14;80.29
37852;BME280;23691;52.486;4.650;2023-03-20T07:30:53;101811.03;;;9.13;80.30
37852;BME280;23691;52.486;4.650;2023-03-20T07:33:18;101811.88;;;9.14;80.55
37852;BME280;23691;52.486;4.650;2023-03-20T07:35:45;101814.41;;;9.15;80.51
37852;BME280;23691;52.486;4.650;2023-03-20T07:38:10;101800.94;;;9.17;80.56
37852;BME280;23691;52.486;4.650;2023-03-20T07:40:35;101812.19;;;9.20;80.84
37852;BME280;23691;52.486;4.650;2023-03-20T07:43:01;101814.00;;;9.20;80.90
37852;BME280;23691;52.486;4.650;2023-03-20T07:45:26;101812.19;;;9.20;80.78
37852;BME280;23691;52.486;4.650;2023-03-20T07:47:52;101818.97;;;9.24;81.08
37852;BME280;23691;52.486;4.650;2023-03-20T07:50:17;101815.44;;;9.24;81.17
37852;BME280;23691;52.486;4.650;2023-03-20T07:52:47;101818.84;;;9.26;81.28
37852;BME280;23691;52.486;4.650;2023-03-20T07:55:14;101825.59;;;9.30;81.54
37852;BME280;23691;52.486;4.650;2023-03-20T07:57:40;101822.69;;;9.33;81.45
37852;BME280;23691;52.486;4.650;2023-03-20T08:00:06;101817.91;;;9.37;81.36
37852;BME280;23691;52.486;4.650;2023-03-20T08:02:31;101817.63;;;9.40;81.58
37852;BME280;23691;52.486;4.650;2023-03-20T08:04:58;101819.91;;;9.44;81.46
37852;BME280;23691;52.486;4.650;2023-03-20T08:07:24;101814.31;;;9.48;81.72
37852;BME280;23691;52.486;4.650;2023-03-20T08:09:49;101823.75;;;9.52;81.64
37852;BME280;23691;52.486;4.650;2023-03-20T08:12:15;101829.69;;;9.55;81.60
37852;BME280;23691;52.486;4.650;2023-03-20T08:14:41;101824.91;;;9.59;81.64
37852;BME280;23691;52.486;4.650;2023-03-20T08:17:07;101816.03;;;9.58;81.88
37852;BME280;23691;52.486;4.650;2023-03-20T08:19:33;101823.06;;;9.59;81.82
37852;BME280;23691;52.486;4.650;2023-03-20T08:21:58;101819.88;;;9.65;82.03
37852;BME280;23691;52.486;4.650;2023-03-20T08:24:23;101812.41;;;9.69;81.92
37852;BME280;23691;52.486;4.650;2023-03-20T08:26:49;101814.38;;;9.67;81.95
37852;BME280;23691;52.486;4.650;2023-03-20T08:29:15;101813.84;;;9.73;81.95
37852;BME280;23691;52.486;4.650;2023-03-20T08:31:43;101811.63;;;9.78;82.08
37852;BME280;23691;52.486;4.650;2023-03-20T08:34:08;101809.81;;;9.88;81.85
37852;BME280;23691;52.486;4.650;2023-03-20T08:36:34;101812.91;;;9.94;81.69
37852;BME280;23691;52.486;4.650;2023-03-20T08:39:00;101806.59;;;9.95;81.62
37852;BME280;23691;52.486;4.650;2023-03-20T08:41:25;101810.69;;;9.99;81.56
37852;BME280;23691;52.486;4.650;2023-03-20T08:43:50;101814.34;;;9.98;81.78
37852;BME280;23691;52.486;4.650;2023-03-20T08:46:16;101820.66;;;9.97;81.92
37852;BME280;23691;52.486;4.650;2023-03-20T08:48:41;101806.31;;;9.98;81.57
37852;BME280;23691;52.486;4.650;2023-03-20T08:51:07;101808.72;;;10.01;81.71
37852;BME280;23691;52.486;4.650;2023-03-20T08:53:32;101802.13;;;10.05;81.75
37852;BME280;23691;52.486;4.650;2023-03-20T08:55:58;101805.09;;;10.12;81.61
37852;BME280;23691;52.486;4.650;2023-03-20T08:58:23;101797.63;;;10.15;81.67
37852;BME280;23691;52.486;4.650;2023-03-20T09:00:49;101786.81;;;10.17;81.44
37852;BME280;23691;52.486;4.650;2023-03-20T09:03:17;101796.63;;;10.16;81.34
37852;BME280;23691;52.486;4.650;2023-03-20T09:05:47;101791.28;;;10.16;81.33
37852;BME280;23691;52.486;4.650;2023-03-20T09:08:14;101783.97;;;10.18;81.12
37852;BME280;23691;52.486;4.650;2023-03-20T09:10:39;101797.63;;;10.15;81.58
37852;BME280;23691;52.486;4.650;2023-03-20T09:13:05;101791.28;;;10.16;81.22
37852;BME280;23691;52.486;4.650;2023-03-20T09:15:31;101782.44;;;10.16;81.29
37852;BME280;23691;52.486;4.650;2023-03-20T09:17:56;101789.19;;;10.20;81.48
37852;BME280;23691;52.486;4.650;2023-03-20T09:20:22;101791.16;;;10.27;81.35
37852;BME280;23691;52.486;4.650;2023-03-20T09:22:47;101791.31;;;10.26;81.30
37852;BME280;23691;52.486;4.650;2023-03-20T09:25:13;101790.88;;;10.21;81.29
37852;BME280;23691;52.486;4.650;2023-03-20T09:27:38;101796.38;;;10.19;81.27
37852;BME280;23691;52.486;4.650;2023-03-20T09:30:05;101802.84;;;10.17;81.46
37852;BME280;23691;52.486;4.650;2023-03-20T09:32:32;101797.06;;;10.12;82.01
37852;BME280;23691;52.486;4.650;2023-03-20T09:34:57;101809.56;;;10.11;81.83
37852;BME280;23691;52.486;4.650;2023-03-20T09:37:23;101797.63;;;10.15;81.67
37852;BME280;23691;52.486;4.650;2023-03-20T09:39:48;101793.84;;;10.18;81.95
37852;BME280;23691;52.486;4.650;2023-03-20T09:42:19;101796.78;;;10.15;81.95
37852;BME280;23691;52.486;4.650;2023-03-20T09:45:17;101802.97;;;10.15;81.97
37852;BME280;23691;52.486;4.650;2023-03-20T09:50:27;101793.41;;;10.22;82.09
37852;BME280;23691;52.486;4.650;2023-03-20T09:53:15;101792.47;;;10.33;81.90
37852;BME280;23691;52.486;4.650;2023-03-20T09:55:42;101786.69;;;10.38;82.12
37852;BME280;23691;52.486;4.650;2023-03-20T09:58:15;101792.22;;;10.36;81.80
37852;BME280;23691;52.486;4.650;2023-03-20T10:00:45;101795.31;;;10.31;81.96
37852;BME280;23691;52.486;4.650;2023-03-20T10:05:44;101783.69;;;10.21;81.97
37852;BME280;23691;52.486;4.650;2023-03-20T10:08:14;101798.34;;;10.27;81.92
37852;BME280;23691;52.486;4.650;2023-03-20T10:18:48;101787.00;;;10.35;82.16
37852;BME280;23691;52.486;4.650;2023-03-20T10:21:18;101792.63;;;10.31;82.06
37852;BME280;23691;52.486;4.650;2023-03-20T10:26:18;101793.06;;;10.37;81.85
37852;BME280;23691;52.486;4.650;2023-03-20T10:28:52;101794.44;;;10.41;82.04
37852;BME280;23691;52.486;4.650;2023-03-20T10:31:25;101785.16;;;10.45;81.79
37852;BME280;23691;52.486;4.650;2023-03-20T10:40:30;101783.63;;;10.52;81.81
37852;BME280;23691;52.486;4.650;2023-03-20T10:43:05;101790.09;;;10.59;81.86
37852;BME280;23691;52.486;4.650;2023-03-20T10:45:43;101787.72;;;10.56;81.93
37852;BME280;23691;52.486;4.650;2023-03-20T10:48:23;101779.53;;;10.58;82.19
37852;BME280;23691;52.486;4.650;2023-03-20T10:50:58;101783.19;;;10.57;82.25
37852;BME280;23691;52.486;4.650;2023-03-20T10:55:59;101773.19;;;10.49;82.40
37852;BME280;23691;52.486;4.650;2023-03-20T10:58:28;101766.00;;;10.49;82.64
37852;BME280;23691;52.486;4.650;2023-03-20T11:00:56;101771.06;;;10.43;82.23
37852;BME280;23691;52.486;4.650;2023-03-20T11:03:25;101767.44;;;10.44;82.63
37852;BME280;23691;52.486;4.650;2023-03-20T11:05:56;101768.09;;;10.46;82.39
37852;BME280;23691;52.486;4.650;2023-03-20T11:08:24;101773.19;;;10.49;82.61
37852;BME280;23691;52.486;4.650;2023-03-20T11:10:59;101767.69;;;10.60;82.53
37852;BME280;23691;52.486;4.650;2023-03-20T11:13:31;101770.34;;;10.60;82.56
37852;BME280;23691;52.486;4.650;2023-03-20T11:16:09;101769.81;;;10.57;82.28
37852;BME280;23691;52.486;4.650;2023-03-20T11:18:35;101762.06;;;10.53;82.74
37852;BME280;23691;52.486;4.650;2023-03-20T11:21:01;101764.34;;;10.48;82.61
37852;BME280;23691;52.486;4.650;2023-03-20T11:23:34;101772.50;;;10.57;82.62
37852;BME280;23691;52.486;4.650;2023-03-20T11:26:10;101764.47;;;10.47;82.41
37852;BME280;23691;52.486;4.650;2023-03-20T11:28:50;101762.22;;;10.42;82.57
37852;BME280;23691;52.486;4.650;2023-03-20T11:34:00;101755.59;;;10.46;83.09
37852;BME280;23691;52.486;4.650;2023-03-20T11:36:33;101762.22;;;10.52;82.83
37852;BME280;23691;52.486;4.650;2023-03-20T11:39:21;101764.75;;;10.53;82.65
37852;BME280;23691;52.486;4.650;2023-03-20T11:41:50;101758.41;;;10.45;82.97
37852;BME280;23691;52.486;4.650;2023-03-20T11:44:26;101757.00;;;10.41;83.14
37852;BME280;23691;52.486;4.650;2023-03-20T11:46:57;101758.97;;;10.39;83.07
37852;BME280;23691;52.486;4.650;2023-03-20T11:49:24;101759.66;;;10.41;83.19
37852;BME280;23691;52.486;4.650;2023-03-20T11:51:51;101760.38;;;10.43;83.14
37852;BME280;23691;52.486;4.650;2023-03-20T11:54:19;101752.63;;;10.40;83.27
37852;BME280;23691;52.486;4.650;2023-03-20T11:56:53;101759.41;;;10.44;83.30
37852;BME280;23691;52.486;4.650;2023-03-20T11:59:19;101759.94;;;10.47;83.16
37852;BME280;23691;52.486;4.650;2023-03-20T12:01:48;101767.44;;;10.53;83.20
37852;BME280;23691;52.486;4.650;2023-03-20T12:04:35;101759.66;;;10.60;83.11
37852;BME280;23691;52.486;4.650;2023-03-20T12:07:21;101763.63;;;10.66;83.24
37852;BME280;23691;52.486;4.650;2023-03-20T12:09:54;101749.09;;;10.68;83.40
37852;BME280;23691;52.486;4.650;2023-03-20T12:34:02;101748.84;;;10.32;84.14
37852;BME280;23691;52.486;4.650;2023-03-20T12:36:31;101744.91;;;10.37;84.22
37852;BME280;23691;52.486;4.650;2023-03-20T12:38:57;101742.78;;;10.40;84.08
37852;BME280;23691;52.486;4.650;2023-03-20T12:41:28;101747.69;;;10.45;84.05
37852;BME280;23691;52.486;4.650;2023-03-20T12:55:07;101728.38;;;10.61;84.21
37852;BME280;23691;52.486;4.650;2023-03-20T13:00:17;101731.50;;;10.76;83.94
37852;BME280;23691;52.486;4.650;2023-03-20T13:03:03;101719.50;;;10.70;84.31
37852;BME280;23691;52.486;4.650;2023-03-20T13:08:42;101719.09;;;10.65;84.22
37852;BME280;23691;52.486;4.650;2023-03-20T13:11:30;101718.13;;;10.66;84.51
37852;BME280;23691;52.486;4.650;2023-03-20T13:14:04;101712.91;;;10.64;84.39
37852;BME280;23691;52.486;4.650;2023-03-20T13:16:47;101712.78;;;10.56;84.83
37852;BME280;23691;52.486;4.650;2023-03-20T13:19:27;101710.81;;;10.48;84.81
37852;BME280;23691;52.486;4.650;2023-03-20T13:22:05;101710.13;;;10.46;85.10
37852;BME280;23691;52.486;4.650;2023-03-20T13:24:58;101710.38;;;10.53;84.97
37852;BME280;23691;52.486;4.650;2023-03-20T13:30:18;101704.59;;;10.48;85.38
37852;BME280;23691;52.486;4.650;2023-03-20T13:33:22;101709.41;;;10.44;85.47
37852;BME280;23691;52.486;4.650;2023-03-20T13:36:35;101700.38;;;10.36;85.21
37852;BME280;23691;52.486;4.650;2023-03-20T13:38:56;101711.38;;;10.32;85.49
37852;BME280;23691;52.486;4.650;2023-03-20T13:41:24;101715.31;;;10.28;85.75
37852;BME280;23691;52.486;4.650;2023-03-20T13:43:54;101710.94;;;10.27;85.80
37852;BME280;23691;52.486;4.650;2023-03-20T13:46:28;101712.47;;;10.20;85.88
37852;BME280;23691;52.486;4.650;2023-03-20T13:49:04;101717.00;;;10.20;86.08
37852;BME280;23691;52.486;4.650;2023-03-20T13:51:40;101717.84;;;10.20;86.37
37852;BME280;23691;52.486;4.650;2023-03-20T13:54:33;101708.56;;;10.15;86.44
37852;BME280;23691;52.486;4.650;2023-03-20T14:05:40;101714.44;;;10.08;86.96
37852;BME280;23691;52.486;4.650;2023-03-20T14:13:36;101707.97;;;10.11;87.09
37852;BME280;23691;52.486;4.650;2023-03-20T14:16:04;101702.38;;;10.14;87.22
37852;BME280;23691;52.486;4.650;2023-03-20T14:18:31;101694.19;;;10.16;87.30
37852;BME280;23691;52.486;4.650;2023-03-20T14:20:59;101689.53;;;10.18;87.26
37852;BME280;23691;52.486;4.650;2023-03-20T14:23:36;101689.66;;;10.16;87.37
37852;BME280;23691;52.486;4.650;2023-03-20T14:26:16;101692.63;;;10.13;87.49
37852;BME280;23691;52.486;4.650;2023-03-20T14:28:51;101701.06;;;10.08;87.61
37852;BME280;23691;52.486;4.650;2023-03-20T14:31:26;101690.78;;;10.04;87.71
37852;BME280;23691;52.486;4.650;2023-03-20T14:33:57;101672.25;;;10.02;87.71
37852;BME280;23691;52.486;4.650;2023-03-20T14:36:29;101673.63;;;10.06;87.99
37852;BME280;23691;52.486;4.650;2023-03-20T14:40:00;101682.34;;;10.08;87.85
37852;BME280;23691;52.486;4.650;2023-03-20T14:42:18;101688.41;;;10.10;88.11
37852;BME280;23691;52.486;4.650;2023-03-20T14:44:57;101671.53;;;10.10;88.41
37852;BME280;23691;52.486;4.650;2023-03-20T14:47:38;101674.63;;;10.15;88.20
37852;BME280;23691;52.486;4.650;2023-03-20T14:50:20;101680.81;;;10.16;88.08
37852;BME280;23691;52.486;4.650;2023-03-20T14:55:30;101671.13;;;10.05;88.67
37852;BME280;23691;52.486;4.650;2023-03-20T14:58:01;101679.13;;;10.05;88.60
37852;BME280;23691;52.486;4.650;2023-03-20T15:00:28;101672.06;;;10.04;88.64
37852;BME280;23691;52.486;4.650;2023-03-20T15:03:09;101672.94;;;10.04;88.66
37852;BME280;23691;52.486;4.650;2023-03-20T15:05:38;101674.91;;;10.02;89.03
37852;BME280;23691;52.486;4.650;2023-03-20T15:08:11;101670.41;;;10.03;88.93
37852;BME280;23691;52.486;4.650;2023-03-20T15:10:51;101668.56;;;10.03;88.94